Terminal Aerodrome Forecast
Issued by NWS Charleston, WV

Current Version | Previous Version | Text Only | Print | Product List | Glossary Off
Versions: 1 2 3 4 5 6 7 8 9 10 11 12 13 14 15 16 17 18 19 20 21 22

510
FTUS41 KRLX 261503 AAA
TAFBKW
TAF AMD
KBKW 261503Z 2615/2712 24008G16KT P6SM FEW060
     FM261600 27009G15KT P6SM FEW140
     FM270000 30008KT P6SM FEW050=

USA.gov is the U.S. government's official web portal to all federal, state and local government web resources and services.